4MS1 weather

Robinsonville Heliport
Robinsonville, Mississippi, United States

Public forecast

Using degrees Fahrenheit for public forecast. Weather courtesy of forecast.io.

Closest aviation weather report (METAR) to Robinsonville Heliport

Closest report is Tunica Municipal Airport, 8.4 nm (15.6 km) SSW. Retrieved 2019/10/17 16:35 UTC (5 minutes ago):

KUTA 171635Z AUTO 00000KT 10SM 14/05 A3013 RMK AO2 TSNO

Closest aviation forecast (TAF) to Robinsonville Heliport

Closest forecast is Memphis International Airport, 21.0 nm (38.9 km) NE. Retrieved 2019/10/17 12:22 UTC (4 hours ago):

TAF KMEM 171120Z 1712/1818 06006KT P6SM FEW250 FM171700 36006KT P6SM SCT250 FM180200 08004KT P6SM BKN250 FM181500 11007KT P6SM SCT250